createdAt,value
2018-12-02T00:00:52.326Z,8.40
2018-12-02T00:03:19.533Z,8.40
2018-12-02T00:05:48.861Z,8.40
2018-12-02T00:08:17.238Z,8.40
2018-12-02T00:10:47.420Z,8.40
2018-12-02T00:13:16.301Z,8.40
2018-12-02T00:15:45.408Z,8.40
2018-12-02T00:18:14.920Z,8.40
2018-12-02T00:20:43.332Z,8.40
2018-12-02T00:23:13.503Z,8.40
2018-12-02T00:25:43.344Z,8.40
2018-12-02T00:28:13.887Z,8.40
2018-12-02T00:30:42.204Z,8.40
2018-12-02T00:33:11.601Z,8.40
2018-12-02T00:35:40.483Z,8.40
2018-12-02T00:38:09.880Z,8.40
2018-12-02T00:40:38.865Z,8.40
2018-12-02T00:43:08.162Z,8.40
2018-12-02T00:45:37.451Z,8.40
2018-12-02T00:48:07.863Z,8.40
2018-12-02T00:50:36.188Z,8.40
2018-12-02T00:53:05.161Z,8.40
2018-12-02T00:55:35.025Z,8.30
2018-12-02T00:58:03.334Z,8.30
2018-12-02T01:00:31.667Z,8.30
2018-12-02T01:02:59.951Z,8.30
2018-12-02T01:05:28.267Z,8.30
2018-12-02T01:07:56.575Z,8.40
2018-12-02T01:10:25.660Z,8.30
2018-12-02T01:12:56.890Z,8.40
2018-12-02T01:15:27.232Z,8.40
2018-12-02T01:17:55.552Z,8.40
2018-12-02T01:20:24.172Z,8.40
2018-12-02T01:22:52.485Z,8.40
2018-12-02T01:25:20.821Z,8.50
2018-12-02T01:27:49.277Z,8.40
2018-12-02T01:30:22.372Z,8.50
2018-12-02T01:32:51.701Z,8.50
2018-12-02T01:35:20.016Z,8.50
2018-12-02T01:37:48.316Z,8.50
2018-12-02T01:40:17.704Z,8.50
2018-12-02T01:42:46.045Z,8.60
2018-12-02T01:45:23.049Z,8.60
2018-12-02T01:47:51.705Z,8.60
2018-12-02T01:50:20.929Z,8.60
2018-12-02T01:52:52.192Z,8.60
2018-12-02T01:55:20.509Z,8.70
2018-12-02T01:57:48.842Z,8.70
2018-12-02T02:00:23.972Z,8.70
2018-12-02T02:02:52.732Z,8.70
2018-12-02T02:05:22.088Z,8.80
2018-12-02T02:07:50.409Z,8.80
2018-12-02T02:10:19.801Z,8.80
2018-12-02T02:12:48.089Z,8.80
2018-12-02T02:15:17.607Z,8.80
2018-12-02T02:17:51.572Z,8.80
2018-12-02T02:20:22.895Z,8.90
2018-12-02T02:22:51.208Z,8.90
2018-12-02T02:25:22.227Z,8.90
2018-12-02T02:27:52.999Z,8.90
2018-12-02T02:30:22.355Z,8.90
2018-12-02T02:32:50.676Z,8.90
2018-12-02T02:35:20.875Z,8.90
2018-12-02T02:37:50.155Z,8.90
2018-12-02T02:40:19.546Z,8.90
2018-12-02T02:42:47.865Z,8.90
2018-12-02T02:45:16.260Z,8.90
2018-12-02T02:47:44.614Z,8.90
2018-12-02T02:50:15.034Z,8.90
2018-12-02T02:52:44.597Z,8.90
2018-12-02T02:55:12.906Z,8.90
2018-12-02T02:57:41.301Z,8.90
2018-12-02T03:00:12.707Z,8.90
2018-12-02T03:02:41.184Z,8.90
2018-12-02T03:05:10.411Z,8.90
2018-12-02T03:07:38.737Z,9.00
2018-12-02T03:10:12.101Z,8.90
2018-12-02T03:12:40.412Z,8.90
2018-12-02T03:15:10.149Z,8.90
2018-12-02T03:17:38.490Z,8.90
2018-12-02T03:20:09.600Z,8.90
2018-12-02T03:22:37.953Z,8.90
2018-12-02T03:25:08.311Z,8.90
2018-12-02T03:27:36.633Z,8.90
2018-12-02T03:30:08.869Z,8.90
2018-12-02T03:32:37.178Z,8.90
2018-12-02T03:35:06.617Z,8.90
2018-12-02T03:37:35.223Z,8.90
2018-12-02T03:40:04.096Z,8.90
2018-12-02T03:42:32.409Z,8.90
2018-12-02T03:45:00.735Z,8.90
2018-12-02T03:47:29.055Z,8.90
2018-12-02T03:49:57.345Z,8.90
2018-12-02T03:52:25.651Z,8.90
2018-12-02T03:54:53.962Z,8.90
2018-12-02T03:57:22.267Z,8.90
2018-12-02T03:59:50.593Z,8.90
2018-12-02T04:02:18.909Z,8.90
2018-12-02T04:04:47.206Z,8.90
2018-12-02T04:07:15.523Z,8.90
2018-12-02T04:09:43.813Z,8.90
2018-12-02T04:12:12.117Z,8.90
2018-12-02T04:14:40.417Z,8.90
2018-12-02T04:17:08.755Z,8.90
2018-12-02T04:19:37.053Z,8.90
2018-12-02T04:22:05.616Z,8.90
2018-12-02T04:24:33.924Z,8.90
2018-12-02T04:27:02.238Z,8.90
2018-12-02T04:29:30.512Z,8.90
2018-12-02T04:31:58.830Z,8.90
2018-12-02T04:34:28.548Z,8.90
2018-12-02T04:36:56.966Z,8.90
2018-12-02T04:39:25.433Z,8.90
2018-12-02T04:41:53.802Z,8.90
2018-12-02T04:44:22.092Z,8.90
2018-12-02T04:46:50.415Z,8.90
2018-12-02T04:49:18.715Z,8.90
2018-12-02T04:51:47.065Z,8.90
2018-12-02T04:54:15.368Z,8.90
2018-12-02T04:56:43.686Z,8.90
2018-12-02T04:59:11.980Z,8.90
2018-12-02T05:01:40.264Z,8.90
2018-12-02T05:04:08.572Z,8.90
2018-12-02T05:06:36.871Z,8.90
2018-12-02T05:09:06.920Z,8.90
2018-12-02T05:11:35.212Z,8.90
2018-12-02T05:14:03.770Z,8.80
2018-12-02T05:16:32.081Z,8.90
2018-12-02T05:19:00.392Z,8.90
2018-12-02T05:21:28.676Z,8.80
2018-12-02T05:23:56.983Z,8.90
2018-12-02T05:26:25.284Z,8.90
2018-12-02T05:28:53.585Z,8.90
2018-12-02T05:31:21.868Z,8.90
2018-12-02T05:33:50.177Z,8.90
2018-12-02T05:36:18.479Z,8.90
2018-12-02T05:38:46.789Z,8.90
2018-12-02T05:41:15.280Z,8.90
2018-12-02T05:43:43.592Z,8.90
2018-12-02T05:46:11.905Z,8.90
2018-12-02T05:48:40.205Z,8.80
2018-12-02T05:51:08.488Z,8.90
2018-12-02T05:53:36.839Z,8.80
2018-12-02T05:56:05.391Z,8.80
2018-12-02T05:58:33.704Z,8.80
2018-12-02T06:01:02.002Z,8.80
2018-12-02T06:03:30.310Z,8.80
2018-12-02T06:05:58.617Z,8.80
2018-12-02T06:08:26.929Z,8.70
2018-12-02T06:10:55.241Z,8.70
2018-12-02T06:13:23.552Z,8.70
2018-12-02T06:15:51.844Z,8.60
2018-12-02T06:18:20.177Z,8.60
2018-12-02T06:20:48.491Z,8.60
2018-12-02T06:23:16.812Z,8.50
2018-12-02T06:25:46.533Z,8.50
2018-12-02T06:28:13.464Z,8.50
2018-12-02T06:30:41.755Z,8.50
2018-12-02T06:33:10.070Z,8.50
2018-12-02T06:35:38.351Z,8.40
2018-12-02T06:38:07.250Z,8.40
2018-12-02T06:40:35.581Z,8.40
2018-12-02T06:43:04.088Z,8.40
2018-12-02T06:45:32.388Z,8.40
2018-12-02T06:48:00.721Z,8.40
2018-12-02T06:50:29.019Z,8.40
2018-12-02T06:52:57.640Z,8.40
2018-12-02T06:55:45.577Z,8.30
2018-12-02T06:58:23.969Z,8.30
2018-12-02T07:01:31.625Z,8.30
2018-12-02T07:04:11.121Z,8.30
2018-12-02T07:06:39.437Z,8.30
2018-12-02T07:09:08.397Z,8.30
2018-12-02T07:11:36.800Z,8.30
2018-12-02T07:14:05.349Z,8.30
2018-12-02T07:16:33.662Z,8.30
2018-12-02T07:19:01.972Z,8.30
2018-12-02T07:21:30.261Z,8.30
2018-12-02T07:23:58.592Z,8.20
2018-12-02T07:26:26.888Z,8.20
2018-12-02T07:28:55.212Z,8.20
2018-12-02T07:31:23.525Z,8.30
2018-12-02T07:33:51.846Z,8.20
2018-12-02T07:36:20.158Z,8.30
2018-12-02T07:38:56.333Z,8.30
2018-12-02T07:41:24.788Z,8.30
2018-12-02T07:43:53.288Z,8.30
2018-12-02T07:46:21.621Z,8.30
2018-12-02T07:48:49.933Z,8.30
2018-12-02T07:51:18.262Z,8.30
2018-12-02T07:53:46.616Z,8.30
2018-12-02T07:56:14.941Z,8.30
2018-12-02T07:58:43.253Z,8.30
2018-12-02T08:01:11.565Z,8.30
2018-12-02T08:03:39.860Z,8.30
2018-12-02T08:06:08.201Z,8.30
2018-12-02T08:08:36.505Z,8.30
2018-12-02T08:11:04.868Z,8.30
2018-12-02T08:13:33.176Z,8.30
2018-12-02T08:16:02.058Z,8.20
2018-12-02T08:18:30.385Z,8.30
2018-12-02T08:20:58.701Z,8.20
2018-12-02T08:23:27.186Z,8.20
2018-12-02T08:25:55.500Z,8.30
2018-12-02T08:28:24.836Z,8.30
2018-12-02T08:30:53.208Z,8.30
2018-12-02T08:33:21.511Z,8.30
2018-12-02T08:35:49.834Z,8.30
2018-12-02T08:38:18.129Z,8.40
2018-12-02T08:40:46.443Z,8.40
2018-12-02T08:43:14.745Z,8.40
2018-12-02T08:45:43.245Z,8.40
2018-12-02T08:48:11.555Z,8.40
2018-12-02T08:50:39.879Z,8.40
2018-12-02T08:53:08.170Z,8.40
2018-12-02T08:55:36.505Z,8.40
2018-12-02T08:58:04.820Z,8.40
2018-12-02T09:00:33.121Z,8.40
2018-12-02T09:03:03.233Z,8.50
2018-12-02T09:05:31.525Z,8.50
2018-12-02T09:08:00.907Z,8.50
2018-12-02T09:10:30.160Z,8.50
2018-12-02T09:13:00.810Z,8.50
2018-12-02T09:15:29.124Z,8.50
2018-12-02T09:17:57.462Z,8.50
2018-12-02T09:20:28.063Z,8.50
2018-12-02T09:22:56.389Z,8.50
2018-12-02T09:25:24.689Z,8.60
2018-12-02T09:27:53.017Z,8.60
2018-12-02T09:30:25.678Z,8.60
2018-12-02T09:32:54.008Z,8.60
2018-12-02T09:35:23.459Z,8.60
2018-12-02T09:37:53.135Z,8.60
2018-12-02T09:40:21.483Z,8.70
2018-12-02T09:42:52.045Z,8.70
2018-12-02T09:45:22.515Z,8.70
2018-12-02T09:47:50.856Z,8.70
2018-12-02T09:50:19.175Z,8.70
2018-12-02T09:52:47.503Z,8.80
2018-12-02T09:55:23.095Z,8.80
2018-12-02T09:57:52.003Z,8.80
2018-12-02T10:00:20.884Z,8.80
2018-12-02T10:02:49.221Z,8.80
2018-12-02T10:05:17.610Z,8.80
2018-12-02T10:07:45.971Z,8.80
2018-12-02T10:10:15.540Z,8.80
2018-12-02T10:12:45.145Z,8.80
2018-12-02T10:15:14.545Z,8.90
2018-12-02T10:17:42.897Z,8.90
2018-12-02T10:20:14.252Z,8.90
2018-12-02T10:22:42.682Z,8.90
2018-12-02T10:25:12.260Z,9.00
2018-12-02T10:27:40.582Z,9.00
2018-12-02T10:30:18.849Z,9.00
2018-12-02T10:32:47.235Z,9.00
2018-12-02T10:35:15.538Z,9.00
2018-12-02T10:37:44.558Z,9.00
2018-12-02T10:40:17.938Z,9.00
2018-12-02T10:42:46.721Z,9.00
2018-12-02T10:45:21.059Z,9.00
2018-12-02T10:47:50.320Z,9.00
2018-12-02T10:50:19.909Z,9.00
2018-12-02T10:52:48.603Z,9.10
2018-12-02T10:56:23.241Z,9.10
2018-12-02T10:58:51.670Z,9.10
2018-12-02T11:01:19.988Z,9.10
2018-12-02T11:03:48.585Z,9.10
2018-12-02T11:06:16.935Z,9.20
2018-12-02T11:08:45.278Z,9.20
2018-12-02T11:11:13.588Z,9.20
2018-12-02T11:13:41.925Z,9.30
2018-12-02T11:16:10.265Z,9.30
2018-12-02T11:18:38.602Z,9.30
2018-12-02T11:21:06.937Z,9.30
2018-12-02T11:23:35.268Z,9.30
2018-12-02T11:26:03.585Z,9.30
2018-12-02T11:28:31.955Z,9.40
2018-12-02T11:31:00.250Z,9.50
2018-12-02T11:33:28.572Z,9.50
2018-12-02T11:35:56.908Z,9.50
2018-12-02T11:38:25.229Z,9.60
2018-12-02T11:40:53.577Z,9.60
2018-12-02T11:43:21.897Z,9.70
2018-12-02T11:45:50.200Z,9.70
2018-12-02T11:48:18.530Z,9.70
2018-12-02T11:50:46.841Z,9.70
2018-12-02T11:53:15.216Z,9.80
2018-12-02T11:55:43.519Z,9.80
2018-12-02T11:58:11.842Z,9.80
2018-12-02T12:00:40.980Z,9.80
2018-12-02T12:03:09.312Z,9.90
2018-12-02T12:05:38.368Z,9.90
2018-12-02T12:08:08.633Z,10.00
2018-12-02T12:10:36.979Z,10.00
2018-12-02T12:13:05.380Z,10.00
2018-12-02T12:15:34.230Z,10.10
2018-12-02T12:18:02.584Z,10.10
2018-12-02T12:20:39.463Z,10.10
2018-12-02T12:23:09.218Z,10.10
2018-12-02T12:25:37.532Z,10.20
2018-12-02T12:28:07.092Z,10.20
2018-12-02T12:30:35.756Z,10.20
2018-12-02T12:33:04.276Z,10.20
2018-12-02T12:35:32.594Z,10.30
2018-12-02T12:38:00.906Z,10.30
2018-12-02T12:40:30.444Z,10.30
2018-12-02T12:43:32.634Z,10.40
2018-12-02T12:46:01.945Z,10.40
2018-12-02T12:48:30.261Z,10.40
2018-12-02T12:50:58.584Z,10.40
2018-12-02T12:53:26.884Z,10.40
2018-12-02T12:55:55.213Z,10.40
2018-12-02T12:58:23.520Z,10.40
2018-12-02T13:00:51.901Z,10.40
2018-12-02T13:03:20.260Z,10.50
2018-12-02T13:05:48.869Z,10.50
2018-12-02T13:08:17.581Z,10.50
2018-12-02T13:10:45.910Z,10.50
2018-12-02T13:13:15.031Z,10.50
2018-12-02T13:15:43.355Z,10.60
2018-12-02T13:18:11.754Z,10.60
2018-12-02T13:20:44.482Z,10.60
2018-12-02T13:23:13.126Z,10.60
2018-12-02T13:25:41.669Z,10.60
2018-12-02T13:28:10.244Z,10.60
2018-12-02T13:30:38.593Z,10.70
2018-12-02T13:33:07.976Z,10.70
2018-12-02T13:35:37.565Z,10.70
2018-12-02T13:38:06.280Z,10.70
2018-12-02T13:40:34.736Z,10.70
2018-12-02T13:43:08.506Z,10.80
2018-12-02T13:45:37.030Z,10.80
2018-12-02T13:48:06.567Z,10.80
2018-12-02T13:50:35.220Z,10.80
2018-12-02T13:53:03.748Z,10.80
2018-12-02T13:55:32.309Z,10.90
2018-12-02T13:58:01.201Z,10.90
2018-12-02T14:00:30.336Z,10.90
2018-12-02T14:03:02.711Z,11.00
2018-12-02T14:05:31.428Z,11.00
2018-12-02T14:07:59.832Z,11.10
2018-12-02T14:10:28.429Z,11.10
2018-12-02T14:13:05.305Z,11.10
2018-12-02T14:15:41.078Z,11.20
2018-12-02T14:18:29.321Z,11.20
2018-12-02T14:20:57.718Z,11.30
2018-12-02T14:23:26.021Z,11.30
2018-12-02T14:25:55.681Z,11.40
2018-12-02T14:28:30.525Z,11.40
2018-12-02T14:30:58.957Z,11.50
2018-12-02T14:33:27.275Z,11.50
2018-12-02T14:35:55.674Z,11.50
2018-12-02T14:38:23.989Z,11.50
2018-12-02T14:40:52.351Z,11.50
2018-12-02T14:43:20.684Z,11.50
2018-12-02T14:45:49.021Z,11.60
2018-12-02T14:48:17.328Z,11.60
2018-12-02T14:50:45.650Z,11.70
2018-12-02T14:53:13.953Z,11.70
2018-12-02T14:55:42.457Z,11.70
2018-12-02T14:58:10.775Z,11.70
2018-12-02T15:00:39.101Z,11.70
2018-12-02T15:03:07.419Z,11.80
2018-12-02T15:05:35.740Z,11.80
2018-12-02T15:08:04.315Z,11.80
2018-12-02T15:10:32.651Z,11.80
2018-12-02T15:13:00.969Z,11.80
2018-12-02T15:15:29.313Z,11.80
2018-12-02T15:17:57.648Z,11.80
2018-12-02T15:20:25.962Z,11.80
2018-12-02T15:22:54.305Z,11.80
2018-12-02T15:25:22.634Z,11.80
2018-12-02T15:27:51.011Z,11.80
2018-12-02T15:30:19.379Z,11.80
2018-12-02T15:32:51.365Z,11.80
2018-12-02T15:35:19.799Z,11.90
2018-12-02T15:37:48.127Z,11.90
2018-12-02T15:40:17.478Z,11.90
2018-12-02T15:42:47.933Z,11.90
2018-12-02T15:45:16.735Z,11.90
2018-12-02T15:47:45.072Z,11.90
2018-12-02T15:50:14.706Z,12.00
2018-12-02T15:52:43.176Z,12.00
2018-12-02T15:55:45.385Z,12.00
2018-12-02T15:58:14.289Z,12.10
2018-12-02T16:00:44.163Z,12.10
2018-12-02T16:03:12.493Z,12.10
2018-12-02T16:05:40.988Z,12.10
2018-12-02T16:08:09.802Z,12.20
2018-12-02T16:10:38.130Z,12.20
2018-12-02T16:13:08.445Z,12.30
2018-12-02T16:15:36.837Z,12.30
2018-12-02T16:18:06.661Z,12.40
2018-12-02T16:20:37.265Z,12.40
2018-12-02T16:23:06.269Z,12.40
2018-12-02T16:25:34.604Z,12.40
2018-12-02T16:28:02.948Z,12.40
2018-12-02T16:30:31.288Z,12.40
2018-12-02T16:32:59.642Z,12.40
2018-12-02T16:35:27.956Z,12.40
2018-12-02T16:37:56.558Z,12.40
2018-12-02T16:40:25.755Z,12.30
2018-12-02T16:42:55.143Z,12.30
2018-12-02T16:45:23.560Z,12.20
2018-12-02T16:47:54.169Z,12.20
2018-12-02T16:50:28.665Z,12.20
2018-12-02T16:52:58.382Z,12.10
2018-12-02T16:55:29.312Z,12.10
2018-12-02T16:58:34.073Z,12.10
2018-12-02T17:01:10.969Z,12.10
2018-12-02T17:03:39.276Z,12.00
2018-12-02T17:06:07.715Z,12.00
2018-12-02T17:08:36.048Z,12.00
2018-12-02T17:11:04.361Z,12.10
2018-12-02T17:13:32.704Z,12.10
2018-12-02T17:16:01.012Z,12.20
2018-12-02T17:18:29.357Z,12.20
2018-12-02T17:20:57.666Z,12.20
2018-12-02T17:23:25.994Z,12.30
2018-12-02T17:25:54.304Z,12.30
2018-12-02T17:28:22.616Z,12.30
2018-12-02T17:30:54.756Z,12.30
2018-12-02T17:33:23.081Z,12.30
2018-12-02T17:35:51.512Z,12.40
2018-12-02T17:38:21.436Z,12.40
2018-12-02T17:40:49.765Z,12.40
2018-12-02T17:43:18.081Z,12.40
2018-12-02T17:45:46.393Z,12.40
2018-12-02T17:48:14.716Z,12.40
2018-12-02T17:50:43.029Z,12.40
2018-12-02T17:53:12.756Z,12.40
2018-12-02T17:55:41.052Z,12.30
2018-12-02T17:58:09.462Z,12.30
2018-12-02T18:00:37.799Z,12.30
2018-12-02T18:03:07.806Z,12.30
2018-12-02T18:05:39.143Z,12.30
2018-12-02T18:08:07.574Z,12.30
2018-12-02T18:10:35.888Z,12.30
2018-12-02T18:13:04.492Z,12.30
2018-12-02T18:15:32.804Z,12.30
2018-12-02T18:18:01.152Z,12.30
2018-12-02T18:20:29.534Z,12.30
2018-12-02T18:22:57.880Z,12.20
2018-12-02T18:25:26.209Z,12.20
2018-12-02T18:27:54.544Z,12.20
2018-12-02T18:30:24.032Z,12.20
2018-12-02T18:32:53.793Z,12.20
2018-12-02T18:36:27.068Z,12.20
2018-12-02T18:38:55.400Z,12.10
2018-12-02T18:41:34.117Z,12.10
2018-12-02T18:44:02.457Z,12.10
2018-12-02T18:46:30.771Z,12.10
2018-12-02T18:48:59.098Z,12.10
2018-12-02T18:51:27.421Z,12.10
2018-12-02T18:53:55.982Z,12.10
2018-12-02T18:56:24.323Z,12.10
2018-12-02T18:58:53.496Z,12.10
2018-12-02T19:01:21.005Z,12.00
2018-12-02T19:03:49.341Z,12.10
2018-12-02T19:06:17.640Z,12.10
2018-12-02T19:08:45.992Z,12.00
2018-12-02T19:11:14.653Z,12.00
2018-12-02T19:13:43.770Z,12.00
2018-12-02T19:16:11.364Z,12.00
2018-12-02T19:18:40.097Z,12.00
2018-12-02T19:21:13.048Z,12.00
2018-12-02T19:23:41.379Z,12.00
2018-12-02T19:26:09.690Z,12.00
2018-12-02T19:28:37.983Z,12.00
2018-12-02T19:31:06.325Z,12.00
2018-12-02T19:33:34.752Z,12.00
2018-12-02T19:36:08.484Z,11.90
2018-12-02T19:38:36.789Z,11.90
2018-12-02T19:43:39.908Z,11.90
2018-12-02T19:46:09.156Z,11.90
2018-12-02T19:48:38.668Z,11.80
2018-12-02T19:51:07.260Z,11.80
2018-12-02T19:53:35.595Z,11.80
2018-12-02T19:56:03.954Z,11.80
2018-12-02T19:58:32.283Z,11.80
2018-12-02T20:01:00.626Z,11.90
2018-12-02T20:03:28.950Z,11.90
2018-12-02T20:05:57.358Z,11.90
2018-12-02T20:08:25.821Z,11.90
2018-12-02T20:10:54.958Z,11.90
2018-12-02T20:13:24.003Z,11.90
2018-12-02T20:15:58.359Z,11.90
2018-12-02T20:18:26.932Z,11.90
2018-12-02T20:20:57.145Z,11.90
2018-12-02T20:23:30.963Z,11.90
2018-12-02T20:26:02.194Z,11.90
2018-12-02T20:28:35.181Z,11.90
2018-12-02T20:31:09.084Z,11.90
2018-12-02T20:33:37.484Z,11.90
2018-12-02T20:36:06.470Z,11.90
2018-12-02T20:38:34.796Z,11.90
2018-12-02T20:41:03.184Z,11.90
2018-12-02T20:43:31.553Z,12.00
2018-12-02T20:45:59.912Z,12.00
2018-12-02T20:48:29.426Z,12.00
2018-12-02T20:50:57.841Z,12.00
2018-12-02T20:53:28.216Z,12.00
2018-12-02T20:55:57.499Z,12.00
2018-12-02T20:58:25.908Z,12.00
2018-12-02T21:00:54.259Z,12.00
2018-12-02T21:03:24.141Z,12.00
2018-12-02T21:06:00.141Z,11.90
2018-12-02T21:08:28.616Z,12.00
2018-12-02T21:10:56.971Z,12.00
2018-12-02T21:13:25.477Z,12.00
2018-12-02T21:15:54.873Z,12.00
2018-12-02T21:18:23.382Z,12.00
2018-12-02T21:20:51.824Z,12.00
2018-12-02T21:23:20.193Z,12.00
2018-12-02T21:25:49.309Z,12.00
2018-12-02T21:28:18.813Z,12.00
2018-12-02T21:30:48.065Z,12.00
2018-12-02T21:33:16.464Z,12.00
2018-12-02T21:35:44.833Z,12.00
2018-12-02T21:38:13.151Z,12.00
2018-12-02T21:40:41.542Z,12.00
2018-12-02T21:43:09.857Z,12.00
2018-12-02T21:45:38.200Z,12.00
2018-12-02T21:48:09.097Z,12.00
2018-12-02T21:50:37.429Z,12.00
2018-12-02T21:53:05.781Z,12.00
2018-12-02T21:55:34.098Z,12.00
2018-12-02T21:58:02.431Z,12.00
2018-12-02T22:00:36.010Z,12.00
2018-12-02T22:03:04.431Z,12.10
2018-12-02T22:05:32.745Z,12.10
2018-12-02T22:08:01.090Z,12.10
2018-12-02T22:10:31.588Z,12.10
2018-12-02T22:12:59.980Z,12.10
2018-12-02T22:15:28.323Z,12.10
2018-12-02T22:17:56.704Z,12.10
2018-12-02T22:20:25.018Z,12.10
2018-12-02T22:22:53.354Z,12.20
2018-12-02T22:25:22.797Z,12.10
2018-12-02T22:27:53.409Z,12.10
2018-12-02T22:30:22.838Z,12.10
2018-12-02T22:32:51.270Z,12.10
2018-12-02T22:35:19.577Z,12.10
2018-12-02T22:37:48.027Z,12.10
2018-12-02T22:40:20.133Z,12.10
2018-12-02T22:42:48.473Z,12.10
2018-12-02T22:45:19.033Z,12.10
2018-12-02T22:47:47.364Z,12.10
2018-12-02T22:50:16.755Z,12.10
2018-12-02T22:52:46.140Z,12.10
2018-12-02T22:55:14.453Z,12.10
2018-12-02T22:57:42.808Z,12.10
2018-12-02T23:00:21.312Z,12.10
2018-12-02T23:02:57.581Z,12.10
2018-12-02T23:05:25.972Z,12.10
2018-12-02T23:07:54.305Z,12.10
2018-12-02T23:10:22.885Z,12.10
2018-12-02T23:12:51.267Z,12.10
2018-12-02T23:15:19.638Z,12.10
2018-12-02T23:17:48.002Z,12.10
2018-12-02T23:20:16.324Z,12.10
2018-12-02T23:22:44.663Z,12.10
2018-12-02T23:25:13.907Z,12.10
2018-12-02T23:27:42.300Z,12.10
2018-12-02T23:30:28.335Z,12.10
2018-12-02T23:32:56.668Z,12.10
2018-12-02T23:35:24.991Z,12.10
2018-12-02T23:37:53.329Z,12.10
2018-12-02T23:40:24.471Z,12.10
2018-12-02T23:42:52.801Z,12.10
2018-12-02T23:45:21.121Z,12.10
2018-12-02T23:47:49.440Z,12.10
2018-12-02T23:50:22.993Z,12.10
2018-12-02T23:52:51.382Z,12.10
2018-12-02T23:55:20.681Z,12.10
2018-12-02T23:57:49.084Z,12.20
